sensor_id;sensor_type;location;lat;lon;timestamp;pressure;altitude;pressure_sealevel;temperature;humidity
31761;BME280;18335;51.486;7.562;2024-02-23T00:00:02;97395.47;;;8.20;100.00
31761;BME280;18335;51.486;7.562;2024-02-23T00:02:30;97391.31;;;8.18;100.00
31761;BME280;18335;51.486;7.562;2024-02-23T00:04:57;97429.13;;;8.13;100.00
31761;BME280;18335;51.486;7.562;2024-02-23T00:07:25;97433.50;;;7.82;100.00
31761;BME280;18335;51.486;7.562;2024-02-23T00:09:52;97463.16;;;8.15;100.00
31761;BME280;18335;51.486;7.562;2024-02-23T00:12:18;97458.03;;;8.01;100.00
31761;BME280;18335;51.486;7.562;2024-02-23T00:14:45;97453.09;;;7.91;100.00
31761;BME280;18335;51.486;7.562;2024-02-23T00:17:12;97488.63;;;7.76;100.00
31761;BME280;18335;51.486;7.562;2024-02-23T00:19:39;97502.41;;;7.82;100.00
31761;BME280;18335;51.486;7.562;2024-02-23T00:22:05;97503.09;;;7.64;100.00
31761;BME280;18335;51.486;7.562;2024-02-23T00:24:33;97513.63;;;7.92;100.00
31761;BME280;18335;51.486;7.562;2024-02-23T00:27:01;97517.09;;;7.67;100.00
31761;BME280;18335;51.486;7.562;2024-02-23T00:29:28;97519.56;;;7.69;100.00
31761;BME280;18335;51.486;7.562;2024-02-23T00:31:55;97538.81;;;7.67;100.00
31761;BME280;18335;51.486;7.562;2024-02-23T00:34:21;97527.88;;;7.80;100.00
31761;BME280;18335;51.486;7.562;2024-02-23T00:36:48;97536.94;;;7.48;100.00
31761;BME280;18335;51.486;7.562;2024-02-23T00:39:15;97546.34;;;7.33;100.00
31761;BME280;18335;51.486;7.562;2024-02-23T00:41:43;97553.59;;;7.65;100.00
31761;BME280;18335;51.486;7.562;2024-02-23T00:44:09;97557.56;;;7.62;100.00
31761;BME280;18335;51.486;7.562;2024-02-23T00:46:36;97584.09;;;7.47;100.00
31761;BME280;18335;51.486;7.562;2024-02-23T00:49:05;97577.41;;;7.69;100.00
31761;BME280;18335;51.486;7.562;2024-02-23T00:51:31;97573.91;;;7.36;100.00
31761;BME280;18335;51.486;7.562;2024-02-23T00:53:58;97587.84;;;7.59;100.00
31761;BME280;18335;51.486;7.562;2024-02-23T00:56:25;97601.63;;;7.64;100.00
31761;BME280;18335;51.486;7.562;2024-02-23T00:58:54;97607.69;;;7.47;100.00
31761;BME280;18335;51.486;7.562;2024-02-23T01:01:21;97616.00;;;7.65;100.00
31761;BME280;18335;51.486;7.562;2024-02-23T01:03:47;97630.22;;;7.60;100.00
31761;BME280;18335;51.486;7.562;2024-02-23T01:06:14;97617.69;;;7.53;100.00
31761;BME280;18335;51.486;7.562;2024-02-23T01:08:41;97621.66;;;7.63;100.00
31761;BME280;18335;51.486;7.562;2024-02-23T01:11:08;97640.47;;;7.52;100.00
31761;BME280;18335;51.486;7.562;2024-02-23T01:13:34;97647.34;;;7.41;100.00
31761;BME280;18335;51.486;7.562;2024-02-23T01:16:03;97627.72;;;7.13;100.00
31761;BME280;18335;51.486;7.562;2024-02-23T01:18:30;97641.69;;;7.56;100.00
31761;BME280;18335;51.486;7.562;2024-02-23T01:20:56;97644.84;;;7.59;100.00
31761;BME280;18335;51.486;7.562;2024-02-23T01:23:23;97641.72;;;7.49;100.00
31761;BME280;18335;51.486;7.562;2024-02-23T01:25:50;97635.25;;;7.63;100.00
31761;BME280;18335;51.486;7.562;2024-02-23T01:28:17;97631.50;;;7.45;100.00
31761;BME280;18335;51.486;7.562;2024-02-23T01:30:43;97634.63;;;7.61;100.00
31761;BME280;18335;51.486;7.562;2024-02-23T01:33:11;97643.59;;;7.22;100.00
31761;BME280;18335;51.486;7.562;2024-02-23T01:35:38;97638.16;;;7.42;100.00
31761;BME280;18335;51.486;7.562;2024-02-23T01:38:05;97649.66;;;7.57;100.00
31761;BME280;18335;51.486;7.562;2024-02-23T01:40:32;97652.34;;;7.44;100.00
31761;BME280;18335;51.486;7.562;2024-02-23T01:43:02;97661.75;;;7.29;100.00
31761;BME280;18335;51.486;7.562;2024-02-23T01:45:29;97657.78;;;7.31;100.00
31761;BME280;18335;51.486;7.562;2024-02-23T01:47:56;97658.00;;;7.36;100.00
31761;BME280;18335;51.486;7.562;2024-02-23T01:50:24;97665.09;;;7.31;100.00
31761;BME280;18335;51.486;7.562;2024-02-23T01:52:52;97666.53;;;7.20;100.00
31761;BME280;18335;51.486;7.562;2024-02-23T01:55:20;97666.94;;;7.04;100.00
31761;BME280;18335;51.486;7.562;2024-02-23T01:57:47;97662.81;;;7.34;100.00
31761;BME280;18335;51.486;7.562;2024-02-23T02:00:16;97682.81;;;7.27;100.00
31761;BME280;18335;51.486;7.562;2024-02-23T02:02:49;97689.50;;;7.44;100.00
31761;BME280;18335;51.486;7.562;2024-02-23T02:05:16;97681.34;;;7.24;100.00
31761;BME280;18335;51.486;7.562;2024-02-23T02:07:44;97688.88;;;7.42;100.00
31761;BME280;18335;51.486;7.562;2024-02-23T02:10:12;97692.84;;;7.39;100.00
31761;BME280;18335;51.486;7.562;2024-02-23T02:12:40;97687.41;;;7.39;100.00
31761;BME280;18335;51.486;7.562;2024-02-23T02:15:07;97693.88;;;7.38;100.00
31761;BME280;18335;51.486;7.562;2024-02-23T02:17:34;97686.16;;;7.35;100.00
31761;BME280;18335;51.486;7.562;2024-02-23T02:20:02;97689.72;;;7.42;100.00
31761;BME280;18335;51.486;7.562;2024-02-23T02:22:32;97680.94;;;7.53;100.00
31761;BME280;18335;51.486;7.562;2024-02-23T02:25:00;97695.78;;;7.57;100.00
31761;BME280;18335;51.486;7.562;2024-02-23T02:27:29;97687.84;;;7.43;100.00
31761;BME280;18335;51.486;7.562;2024-02-23T02:29:56;97699.53;;;7.56;100.00
31761;BME280;18335;51.486;7.562;2024-02-23T02:32:23;97698.69;;;7.49;100.00
31761;BME280;18335;51.486;7.562;2024-02-23T02:34:49;97694.50;;;7.53;100.00
31761;BME280;18335;51.486;7.562;2024-02-23T02:37:16;97708.69;;;7.22;100.00
31761;BME280;18335;51.486;7.562;2024-02-23T02:39:43;97703.91;;;7.44;100.00
31761;BME280;18335;51.486;7.562;2024-02-23T02:42:11;97705.78;;;7.37;100.00
31761;BME280;18335;51.486;7.562;2024-02-23T02:44:37;97718.72;;;7.68;100.00
31761;BME280;18335;51.486;7.562;2024-02-23T02:47:04;97712.88;;;7.51;100.00
31761;BME280;18335;51.486;7.562;2024-02-23T02:49:31;97731.25;;;7.49;100.00
31761;BME280;18335;51.486;7.562;2024-02-23T02:51:58;97729.97;;;7.39;100.00
31761;BME280;18335;51.486;7.562;2024-02-23T02:54:24;97725.41;;;7.46;100.00
31761;BME280;18335;51.486;7.562;2024-02-23T02:56:51;97734.16;;;7.48;100.00
31761;BME280;18335;51.486;7.562;2024-02-23T02:59:20;97737.09;;;7.59;100.00
31761;BME280;18335;51.486;7.562;2024-02-23T03:01:47;97736.69;;;7.62;100.00
31761;BME280;18335;51.486;7.562;2024-02-23T03:04:14;97739.81;;;7.59;100.00
31761;BME280;18335;51.486;7.562;2024-02-23T03:06:41;97745.44;;;7.51;100.00
31761;BME280;18335;51.486;7.562;2024-02-23T03:09:07;97751.50;;;7.60;100.00
31761;BME280;18335;51.486;7.562;2024-02-23T03:11:34;97742.31;;;7.54;100.00
31761;BME280;18335;51.486;7.562;2024-02-23T03:14:01;97762.97;;;7.49;100.00
31761;BME280;18335;51.486;7.562;2024-02-23T03:16:29;97768.81;;;7.59;100.00
31761;BME280;18335;51.486;7.562;2024-02-23T03:18:56;97763.16;;;7.47;100.00
31761;BME280;18335;51.486;7.562;2024-02-23T03:21:23;97776.72;;;7.34;100.00
31761;BME280;18335;51.486;7.562;2024-02-23T03:23:50;97770.88;;;7.37;100.00
31761;BME280;18335;51.486;7.562;2024-02-23T03:26:17;97778.88;;;7.58;100.00
31761;BME280;18335;51.486;7.562;2024-02-23T03:28:44;97775.53;;;7.69;100.00
31761;BME280;18335;51.486;7.562;2024-02-23T03:31:10;97786.16;;;7.51;100.00
31761;BME280;18335;51.486;7.562;2024-02-23T03:33:38;97788.44;;;7.54;100.00
31761;BME280;18335;51.486;7.562;2024-02-23T03:36:06;97785.75;;;7.74;100.00
31761;BME280;18335;51.486;7.562;2024-02-23T03:38:32;97786.97;;;7.52;100.00
31761;BME280;18335;51.486;7.562;2024-02-23T03:40:59;97773.78;;;7.36;100.00
31761;BME280;18335;51.486;7.562;2024-02-23T03:43:26;97784.84;;;7.28;100.00
31761;BME280;18335;51.486;7.562;2024-02-23T03:45:53;97770.41;;;7.20;100.00
31761;BME280;18335;51.486;7.562;2024-02-23T03:48:20;97786.50;;;7.35;100.00
31761;BME280;18335;51.486;7.562;2024-02-23T03:50:48;97790.03;;;7.16;100.00
31761;BME280;18335;51.486;7.562;2024-02-23T03:53:14;97787.94;;;7.18;100.00
31761;BME280;18335;51.486;7.562;2024-02-23T03:55:41;97800.91;;;7.22;100.00
31761;BME280;18335;51.486;7.562;2024-02-23T03:58:08;97793.00;;;7.34;100.00
31761;BME280;18335;51.486;7.562;2024-02-23T04:00:35;97799.31;;;7.74;100.00
31761;BME280;18335;51.486;7.562;2024-02-23T04:03:01;97793.44;;;7.51;100.00
31761;BME280;18335;51.486;7.562;2024-02-23T04:05:28;97801.94;;;7.28;100.00
31761;BME280;18335;51.486;7.562;2024-02-23T04:07:56;97798.84;;;7.31;100.00
31761;BME280;18335;51.486;7.562;2024-02-23T04:10:23;97812.59;;;7.36;100.00
31761;BME280;18335;51.486;7.562;2024-02-23T04:12:49;97810.91;;;7.22;100.00
31761;BME280;18335;51.486;7.562;2024-02-23T04:15:16;97826.84;;;7.51;100.00
31761;BME280;18335;51.486;7.562;2024-02-23T04:17:43;97807.47;;;7.61;100.00
31761;BME280;18335;51.486;7.562;2024-02-23T04:20:10;97826.03;;;7.57;100.00
31761;BME280;18335;51.486;7.562;2024-02-23T04:22:37;97833.50;;;7.42;100.00
31761;BME280;18335;51.486;7.562;2024-02-23T04:25:05;97820.53;;;7.31;100.00
31761;BME280;18335;51.486;7.562;2024-02-23T04:27:32;97825.94;;;7.24;100.00
31761;BME280;18335;51.486;7.562;2024-02-23T04:29:59;97833.53;;;7.49;100.00
31761;BME280;18335;51.486;7.562;2024-02-23T04:32:25;97833.03;;;7.26;100.00
31761;BME280;18335;51.486;7.562;2024-02-23T04:34:52;97828.44;;;7.19;100.00
31761;BME280;18335;51.486;7.562;2024-02-23T04:37:19;97832.38;;;7.23;100.00
31761;BME280;18335;51.486;7.562;2024-02-23T04:39:46;97834.63;;;7.07;100.00
31761;BME280;18335;51.486;7.562;2024-02-23T04:42:14;97834.22;;;7.10;100.00
31761;BME280;18335;51.486;7.562;2024-02-23T04:44:41;97837.66;;;7.38;100.00
31761;BME280;18335;51.486;7.562;2024-02-23T04:47:07;97834.25;;;7.23;100.00
31761;BME280;18335;51.486;7.562;2024-02-23T04:49:34;97829.63;;;7.10;100.00
31761;BME280;18335;51.486;7.562;2024-02-23T04:52:01;97828.41;;;7.26;100.00
31761;BME280;18335;51.486;7.562;2024-02-23T04:54:27;97832.97;;;7.12;100.00
31761;BME280;18335;51.486;7.562;2024-02-23T04:56:54;97828.28;;;6.93;100.00
31761;BME280;18335;51.486;7.562;2024-02-23T04:59:22;97837.41;;;7.27;100.00
31761;BME280;18335;51.486;7.562;2024-02-23T05:01:49;97841.06;;;7.06;100.00
31761;BME280;18335;51.486;7.562;2024-02-23T05:04:15;97825.38;;;6.95;100.00
31761;BME280;18335;51.486;7.562;2024-02-23T05:06:42;97829.19;;;7.07;100.00
31761;BME280;18335;51.486;7.562;2024-02-23T05:09:09;97831.63;;;6.89;100.00
31761;BME280;18335;51.486;7.562;2024-02-23T05:11:36;97837.91;;;6.96;100.00
31761;BME280;18335;51.486;7.562;2024-02-23T05:14:03;97841.88;;;7.00;100.00
31761;BME280;18335;51.486;7.562;2024-02-23T05:16:31;97841.72;;;7.14;100.00
31761;BME280;18335;51.486;7.562;2024-02-23T05:18:57;97841.53;;;7.16;100.00
31761;BME280;18335;51.486;7.562;2024-02-23T05:21:24;97843.78;;;7.06;100.00
31761;BME280;18335;51.486;7.562;2024-02-23T05:23:51;97843.00;;;7.18;100.00
31761;BME280;18335;51.486;7.562;2024-02-23T05:26:18;97833.47;;;6.88;100.00
31761;BME280;18335;51.486;7.562;2024-02-23T05:28:45;97839.88;;;7.15;100.00
31761;BME280;18335;51.486;7.562;2024-02-23T05:31:12;97836.94;;;7.10;100.00
31761;BME280;18335;51.486;7.562;2024-02-23T05:33:40;97843.59;;;7.07;100.00
31761;BME280;18335;51.486;7.562;2024-02-23T05:36:07;97831.50;;;7.10;100.00
31761;BME280;18335;51.486;7.562;2024-02-23T05:38:34;97836.38;;;7.28;100.00
31761;BME280;18335;51.486;7.562;2024-02-23T05:41:00;97834.66;;;7.20;100.00
31761;BME280;18335;51.486;7.562;2024-02-23T05:43:27;97828.81;;;7.16;100.00
31761;BME280;18335;51.486;7.562;2024-02-23T05:45:54;97828.56;;;7.11;100.00
31761;BME280;18335;51.486;7.562;2024-02-23T05:48:22;97835.97;;;7.31;100.00
31761;BME280;18335;51.486;7.562;2024-02-23T05:50:50;97833.00;;;7.19;100.00
31761;BME280;18335;51.486;7.562;2024-02-23T05:53:18;97834.25;;;7.23;100.00
31761;BME280;18335;51.486;7.562;2024-02-23T05:55:44;97830.25;;;7.12;100.00
31761;BME280;18335;51.486;7.562;2024-02-23T05:58:11;97835.59;;;6.93;100.00
31761;BME280;18335;51.486;7.562;2024-02-23T06:00:39;97827.88;;;6.90;100.00
31761;BME280;18335;51.486;7.562;2024-02-23T06:03:05;97827.88;;;6.96;100.00
31761;BME280;18335;51.486;7.562;2024-02-23T06:05:32;97835.78;;;6.91;100.00
31761;BME280;18335;51.486;7.562;2024-02-23T06:08:00;97830.41;;;6.98;100.00
31761;BME280;18335;51.486;7.562;2024-02-23T06:10:26;97828.81;;;6.76;100.00
31761;BME280;18335;51.486;7.562;2024-02-23T06:12:54;97826.94;;;6.76;100.00
31761;BME280;18335;51.486;7.562;2024-02-23T06:15:21;97828.09;;;6.95;100.00
31761;BME280;18335;51.486;7.562;2024-02-23T06:17:47;97828.72;;;6.97;100.00
31761;BME280;18335;51.486;7.562;2024-02-23T06:20:14;97829.88;;;6.81;100.00
31761;BME280;18335;51.486;7.562;2024-02-23T06:22:41;97839.44;;;6.71;100.00
31761;BME280;18335;51.486;7.562;2024-02-23T06:25:09;97838.53;;;6.63;100.00
31761;BME280;18335;51.486;7.562;2024-02-23T06:27:37;97841.00;;;6.86;100.00
31761;BME280;18335;51.486;7.562;2024-02-23T06:30:04;97846.09;;;6.68;100.00
31761;BME280;18335;51.486;7.562;2024-02-23T06:32:31;97847.47;;;6.57;100.00
31761;BME280;18335;51.486;7.562;2024-02-23T06:34:58;97849.44;;;6.70;100.00
31761;BME280;18335;51.486;7.562;2024-02-23T06:37:24;97835.84;;;6.63;100.00
31761;BME280;18335;51.486;7.562;2024-02-23T06:39:51;97842.66;;;6.53;100.00
31761;BME280;18335;51.486;7.562;2024-02-23T06:42:21;97839.47;;;6.43;100.00
31761;BME280;18335;51.486;7.562;2024-02-23T06:44:48;97850.09;;;6.44;100.00
31761;BME280;18335;51.486;7.562;2024-02-23T06:47:14;97840.53;;;6.48;100.00
31761;BME280;18335;51.486;7.562;2024-02-23T06:49:41;97842.72;;;6.59;100.00
31761;BME280;18335;51.486;7.562;2024-02-23T06:52:09;97838.59;;;6.70;100.00
31761;BME280;18335;51.486;7.562;2024-02-23T06:54:36;97854.81;;;6.63;100.00
31761;BME280;18335;51.486;7.562;2024-02-23T06:57:03;97852.81;;;6.79;100.00
31761;BME280;18335;51.486;7.562;2024-02-23T06:59:31;97851.97;;;6.72;100.00
31761;BME280;18335;51.486;7.562;2024-02-23T07:01:58;97855.94;;;6.76;100.00
31761;BME280;18335;51.486;7.562;2024-02-23T07:04:25;97854.84;;;7.04;100.00
31761;BME280;18335;51.486;7.562;2024-02-23T07:06:52;97858.78;;;7.02;100.00
31761;BME280;18335;51.486;7.562;2024-02-23T07:09:19;97854.59;;;6.99;100.00
31761;BME280;18335;51.486;7.562;2024-02-23T07:11:45;97857.97;;;7.08;100.00
31761;BME280;18335;51.486;7.562;2024-02-23T07:14:12;97852.97;;;7.11;100.00
31761;BME280;18335;51.486;7.562;2024-02-23T07:16:41;97854.28;;;7.22;100.00
31761;BME280;18335;51.486;7.562;2024-02-23T07:19:08;97858.44;;;7.18;100.00
31761;BME280;18335;51.486;7.562;2024-02-23T07:21:35;97862.25;;;7.30;100.00
31761;BME280;18335;51.486;7.562;2024-02-23T07:24:01;97850.63;;;6.95;100.00
31761;BME280;18335;51.486;7.562;2024-02-23T07:26:28;97859.16;;;6.92;100.00
31761;BME280;18335;51.486;7.562;2024-02-23T07:28:55;97863.97;;;6.97;100.00
31761;BME280;18335;51.486;7.562;2024-02-23T07:31:22;97855.91;;;7.10;100.00
31761;BME280;18335;51.486;7.562;2024-02-23T07:33:50;97861.44;;;6.89;100.00
31761;BME280;18335;51.486;7.562;2024-02-23T07:36:17;97847.78;;;7.10;100.00
31761;BME280;18335;51.486;7.562;2024-02-23T07:38:44;97855.75;;;7.24;100.00
31761;BME280;18335;51.486;7.562;2024-02-23T07:41:11;97850.22;;;7.05;100.00
31761;BME280;18335;51.486;7.562;2024-02-23T07:43:38;97841.88;;;7.00;100.00
31761;BME280;18335;51.486;7.562;2024-02-23T07:46:05;97864.66;;;7.12;100.00
31761;BME280;18335;51.486;7.562;2024-02-23T07:48:34;97858.44;;;7.18;100.00
31761;BME280;18335;51.486;7.562;2024-02-23T07:51:02;97859.75;;;7.29;100.00
31761;BME280;18335;51.486;7.562;2024-02-23T07:53:29;97868.06;;;7.27;100.00
31761;BME280;18335;51.486;7.562;2024-02-23T07:55:57;97871.03;;;7.39;100.00
31761;BME280;18335;51.486;7.562;2024-02-23T07:58:24;97866.47;;;7.39;100.00
31761;BME280;18335;51.486;7.562;2024-02-23T08:00:52;97859.81;;;7.48;100.00
31761;BME280;18335;51.486;7.562;2024-02-23T08:03:19;97867.50;;;7.45;100.00
31761;BME280;18335;51.486;7.562;2024-02-23T08:05:46;97854.38;;;7.48;100.00
31761;BME280;18335;51.486;7.562;2024-02-23T08:08:14;97859.88;;;7.61;100.00
31761;BME280;18335;51.486;7.562;2024-02-23T08:10:41;97859.75;;;7.35;100.00
31761;BME280;18335;51.486;7.562;2024-02-23T08:13:07;97863.59;;;7.60;100.00
31761;BME280;18335;51.486;7.562;2024-02-23T08:15:36;97859.53;;;7.30;100.00
31761;BME280;18335;51.486;7.562;2024-02-23T08:18:02;97859.00;;;7.54;100.00
31761;BME280;18335;51.486;7.562;2024-02-23T08:20:29;97869.44;;;7.57;100.00
31761;BME280;18335;51.486;7.562;2024-02-23T08:22:56;97869.91;;;7.67;100.00
31761;BME280;18335;51.486;7.562;2024-02-23T08:25:24;97878.88;;;7.74;100.00
31761;BME280;18335;51.486;7.562;2024-02-23T08:27:54;97869.28;;;7.92;100.00
31761;BME280;18335;51.486;7.562;2024-02-23T08:30:20;97888.13;;;8.13;100.00
31761;BME280;18335;51.486;7.562;2024-02-23T08:32:47;97895.63;;;7.91;100.00
31761;BME280;18335;51.486;7.562;2024-02-23T08:35:14;97885.41;;;7.93;100.00
31761;BME280;18335;51.486;7.562;2024-02-23T08:37:41;97889.59;;;8.02;100.00
31761;BME280;18335;51.486;7.562;2024-02-23T08:40:09;97888.16;;;8.06;100.00
31761;BME280;18335;51.486;7.562;2024-02-23T08:42:37;97888.56;;;8.23;100.00
31761;BME280;18335;51.486;7.562;2024-02-23T08:45:05;97887.09;;;8.14;100.00
31761;BME280;18335;51.486;7.562;2024-02-23T08:47:32;97896.72;;;8.23;100.00
31761;BME280;18335;51.486;7.562;2024-02-23T08:50:01;97892.97;;;8.37;100.00
31761;BME280;18335;51.486;7.562;2024-02-23T08:52:28;97905.91;;;8.22;100.00
31761;BME280;18335;51.486;7.562;2024-02-23T08:54:54;97889.59;;;8.87;100.00
31761;BME280;18335;51.486;7.562;2024-02-23T08:57:21;97906.16;;;8.66;100.00
31761;BME280;18335;51.486;7.562;2024-02-23T08:59:50;97899.66;;;8.80;100.00
31761;BME280;18335;51.486;7.562;2024-02-23T09:02:17;97885.84;;;8.95;100.00
31761;BME280;18335;51.486;7.562;2024-02-23T09:04:45;97885.09;;;9.26;100.00
31761;BME280;18335;51.486;7.562;2024-02-23T09:07:12;97891.88;;;8.90;100.00
31761;BME280;18335;51.486;7.562;2024-02-23T09:09:39;97894.66;;;8.31;100.00
31761;BME280;18335;51.486;7.562;2024-02-23T09:12:07;97889.66;;;8.48;100.00
31761;BME280;18335;51.486;7.562;2024-02-23T09:14:36;97901.53;;;8.60;100.00
31761;BME280;18335;51.486;7.562;2024-02-23T09:17:04;97894.88;;;8.30;100.00
31761;BME280;18335;51.486;7.562;2024-02-23T09:19:31;97900.94;;;8.45;100.00
31761;BME280;18335;51.486;7.562;2024-02-23T09:21:58;97886.91;;;8.61;100.00
31761;BME280;18335;51.486;7.562;2024-02-23T09:24:26;97890.06;;;8.52;100.00
31761;BME280;18335;51.486;7.562;2024-02-23T09:26:52;97891.50;;;8.67;100.00
31761;BME280;18335;51.486;7.562;2024-02-23T09:29:19;97893.81;;;8.57;100.00
31761;BME280;18335;51.486;7.562;2024-02-23T09:31:46;97905.53;;;8.77;100.00
31761;BME280;18335;51.486;7.562;2024-02-23T09:34:14;97912.22;;;8.62;100.00
31761;BME280;18335;51.486;7.562;2024-02-23T09:36:41;97893.97;;;9.02;100.00
31761;BME280;18335;51.486;7.562;2024-02-23T09:39:08;97901.69;;;9.11;100.00
31761;BME280;18335;51.486;7.562;2024-02-23T09:41:34;97899.63;;;9.07;100.00
31761;BME280;18335;51.486;7.562;2024-02-23T09:44:03;97896.09;;;8.80;100.00
31761;BME280;18335;51.486;7.562;2024-02-23T09:46:30;97903.38;;;8.99;100.00
31761;BME280;18335;51.486;7.562;2024-02-23T09:48:57;97903.34;;;9.12;100.00
31761;BME280;18335;51.486;7.562;2024-02-23T09:51:26;97906.25;;;9.17;100.00
31761;BME280;18335;51.486;7.562;2024-02-23T09:53:53;97899.78;;;9.12;100.00
31761;BME280;18335;51.486;7.562;2024-02-23T09:56:21;97904.13;;;9.32;100.00
31761;BME280;18335;51.486;7.562;2024-02-23T09:58:54;97909.63;;;9.13;100.00
31761;BME280;18335;51.486;7.562;2024-02-23T10:01:27;97913.38;;;9.31;100.00
31761;BME280;18335;51.486;7.562;2024-02-23T10:03:56;97909.88;;;9.62;100.00
31761;BME280;18335;51.486;7.562;2024-02-23T10:06:23;97906.25;;;9.24;100.00
31761;BME280;18335;51.486;7.562;2024-02-23T10:08:51;97911.25;;;9.40;100.00
31761;BME280;18335;51.486;7.562;2024-02-23T10:11:20;97917.91;;;9.44;100.00
31761;BME280;18335;51.486;7.562;2024-02-23T10:13:47;97917.56;;;9.27;100.00
31761;BME280;18335;51.486;7.562;2024-02-23T10:16:15;97923.75;;;9.54;100.00
31761;BME280;18335;51.486;7.562;2024-02-23T10:18:41;97919.19;;;9.35;100.00
31761;BME280;18335;51.486;7.562;2024-02-23T10:21:08;97925.09;;;9.25;100.00
31761;BME280;18335;51.486;7.562;2024-02-23T10:23:35;97919.22;;;9.28;100.00
31761;BME280;18335;51.486;7.562;2024-02-23T10:26:04;97920.75;;;9.62;100.00
31761;BME280;18335;51.486;7.562;2024-02-23T10:28:31;97939.06;;;9.35;100.00
31761;BME280;18335;51.486;7.562;2024-02-23T10:30:57;97943.97;;;9.07;100.00
31761;BME280;18335;51.486;7.562;2024-02-23T10:33:27;97934.50;;;9.23;100.00
31761;BME280;18335;51.486;7.562;2024-02-23T10:35:56;97933.19;;;9.45;100.00
31761;BME280;18335;51.486;7.562;2024-02-23T10:38:23;97924.56;;;9.61;100.00
31761;BME280;18335;51.486;7.562;2024-02-23T10:40:50;97930.03;;;9.48;100.00
31761;BME280;18335;51.486;7.562;2024-02-23T10:43:20;97928.50;;;9.65;100.00
31761;BME280;18335;51.486;7.562;2024-02-23T10:45:51;97927.28;;;9.61;100.00
31761;BME280;18335;51.486;7.562;2024-02-23T10:48:19;97937.63;;;9.39;100.00
31761;BME280;18335;51.486;7.562;2024-02-23T10:50:46;97932.91;;;9.66;100.00
31761;BME280;18335;51.486;7.562;2024-02-23T10:53:16;97926.84;;;9.64;100.00
31761;BME280;18335;51.486;7.562;2024-02-23T10:55:45;97923.81;;;9.85;100.00
31761;BME280;18335;51.486;7.562;2024-02-23T10:58:12;97920.47;;;9.77;100.00
31761;BME280;18335;51.486;7.562;2024-02-23T11:00:42;97922.53;;;9.94;100.00
31761;BME280;18335;51.486;7.562;2024-02-23T11:03:11;97931.16;;;9.85;100.00
31761;BME280;18335;51.486;7.562;2024-02-23T11:05:39;97921.16;;;10.17;100.00
31761;BME280;18335;51.486;7.562;2024-02-23T11:08:06;97918.97;;;9.87;100.00
31761;BME280;18335;51.486;7.562;2024-02-23T11:10:41;97920.84;;;9.93;100.00
31761;BME280;18335;51.486;7.562;2024-02-23T11:13:08;97925.41;;;9.99;100.00
31761;BME280;18335;51.486;7.562;2024-02-23T11:15:35;97922.84;;;10.05;100.00
31761;BME280;18335;51.486;7.562;2024-02-23T11:18:22;97913.25;;;10.02;100.00
31761;BME280;18335;51.486;7.562;2024-02-23T11:20:54;97916.75;;;9.71;100.00
31761;BME280;18335;51.486;7.562;2024-02-23T11:23:22;97920.97;;;9.67;100.00
31761;BME280;18335;51.486;7.562;2024-02-23T11:26:07;97913.28;;;9.95;100.00
31761;BME280;18335;51.486;7.562;2024-02-23T11:28:42;97912.19;;;10.03;100.00
31761;BME280;18335;51.486;7.562;2024-02-23T11:31:13;97909.88;;;10.38;100.00
31761;BME280;18335;51.486;7.562;2024-02-23T11:33:47;97903.78;;;10.05;100.00
31761;BME280;18335;51.486;7.562;2024-02-23T11:36:22;97905.53;;;9.92;100.00
31761;BME280;18335;51.486;7.562;2024-02-23T11:38:52;97899.75;;;10.20;100.00
31761;BME280;18335;51.486;7.562;2024-02-23T11:41:20;97908.97;;;10.13;100.00
31761;BME280;18335;51.486;7.562;2024-02-23T11:43:47;97895.91;;;10.28;100.00
31761;BME280;18335;51.486;7.562;2024-02-23T11:46:14;97887.63;;;10.41;100.00
31761;BME280;18335;51.486;7.562;2024-02-23T11:48:42;97884.97;;;10.59;100.00
31761;BME280;18335;51.486;7.562;2024-02-23T11:51:09;97879.78;;;10.26;100.00
31761;BME280;18335;51.486;7.562;2024-02-23T11:53:36;97890.81;;;10.63;100.00
31761;BME280;18335;51.486;7.562;2024-02-23T11:56:04;97877.34;;;10.68;100.00
31761;BME280;18335;51.486;7.562;2024-02-23T11:58:31;97878.03;;;10.81;100.00
31761;BME280;18335;51.486;7.562;2024-02-23T12:00:58;97889.88;;;10.50;100.00
31761;BME280;18335;51.486;7.562;2024-02-23T12:03:28;97886.81;;;10.40;100.00
31761;BME280;18335;51.486;7.562;2024-02-23T12:05:57;97886.47;;;10.55;100.00
31761;BME280;18335;51.486;7.562;2024-02-23T12:08:24;97887.34;;;10.98;100.00
31761;BME280;18335;51.486;7.562;2024-02-23T12:10:53;97888.97;;;10.99;100.00
31761;BME280;18335;51.486;7.562;2024-02-23T12:13:20;97883.72;;;11.23;100.00
31761;BME280;18335;51.486;7.562;2024-02-23T12:15:48;97885.28;;;11.12;100.00
31761;BME280;18335;51.486;7.562;2024-02-23T12:18:14;97887.47;;;10.61;100.00
31761;BME280;18335;51.486;7.562;2024-02-23T12:20:41;97884.28;;;10.88;100.00
31761;BME280;18335;51.486;7.562;2024-02-23T12:23:11;97897.50;;;11.09;100.00
31761;BME280;18335;51.486;7.562;2024-02-23T12:25:38;97891.06;;;10.79;100.00
31761;BME280;18335;51.486;7.562;2024-02-23T12:28:05;97899.75;;;10.94;100.00
31761;BME280;18335;51.486;7.562;2024-02-23T12:30:32;97896.31;;;10.56;100.00
31761;BME280;18335;51.486;7.562;2024-02-23T12:33:04;97915.84;;;10.53;100.00
31761;BME280;18335;51.486;7.562;2024-02-23T12:35:31;97907.75;;;10.40;100.00
31761;BME280;18335;51.486;7.562;2024-02-23T12:37:57;97918.66;;;10.40;100.00
31761;BME280;18335;51.486;7.562;2024-02-23T12:40:25;97917.03;;;10.39;100.00
31761;BME280;18335;51.486;7.562;2024-02-23T12:42:52;97911.78;;;10.37;100.00
31761;BME280;18335;51.486;7.562;2024-02-23T12:45:19;97913.78;;;10.48;100.00
31761;BME280;18335;51.486;7.562;2024-02-23T12:47:46;97905.56;;;10.55;100.00
31761;BME280;18335;51.486;7.562;2024-02-23T12:50:13;97898.59;;;10.59;100.00
31761;BME280;18335;51.486;7.562;2024-02-23T12:52:40;97913.75;;;10.80;100.00
31761;BME280;18335;51.486;7.562;2024-02-23T12:55:07;97915.47;;;10.74;100.00
31761;BME280;18335;51.486;7.562;2024-02-23T12:57:36;97913.03;;;10.66;100.00
31761;BME280;18335;51.486;7.562;2024-02-23T13:00:03;97902.56;;;10.63;100.00